createdAt,value
2018-08-07T00:00:52.455Z,60.87
2018-08-07T00:15:52.378Z,60.51
2018-08-07T00:30:50.927Z,61.31
2018-08-07T00:45:52.848Z,60.63
2018-08-07T01:00:50.932Z,60.33
2018-08-07T01:15:50.975Z,60.88
2018-08-07T01:30:51.181Z,62.30
2018-08-07T01:45:57.246Z,61.84
2018-08-07T02:00:51.757Z,63.79
2018-08-07T02:15:51.256Z,64.28
2018-08-07T02:45:50.616Z,64.09
2018-08-07T03:00:50.339Z,60.71
2018-08-07T03:15:50.234Z,57.14
2018-08-07T03:30:50.691Z,54.92
2018-08-07T03:45:54.311Z,55.93
2018-08-07T04:00:56.569Z,55.28
2018-08-07T04:15:56.260Z,53.62
2018-08-07T04:30:56.338Z,52.58
2018-08-07T04:45:51.506Z,52.49
2018-08-07T05:00:51.436Z,50.86
2018-08-07T05:15:59.755Z,49.41
2018-08-07T05:30:53.456Z,48.48
2018-08-07T05:45:51.668Z,46.93
2018-08-07T06:00:51.102Z,46.55
2018-08-07T06:15:50.511Z,45.09
2018-08-07T06:30:51.213Z,43.60
2018-08-07T06:45:51.099Z,42.36
2018-08-07T07:00:52.985Z,41.04
2018-08-07T07:15:50.460Z,39.68
2018-08-07T07:30:50.479Z,37.39
2018-08-07T09:00:50.442Z,32.07
2018-08-07T09:30:51.195Z,28.50
2018-08-07T11:00:50.636Z,24.02
2018-08-07T12:00:50.919Z,27.42
2018-08-07T12:15:50.976Z,27.33
2018-08-07T12:30:52.744Z,27.42
2018-08-07T12:45:52.464Z,27.69
2018-08-07T13:00:50.363Z,27.90
2018-08-07T13:15:51.163Z,35.58
2018-08-07T13:30:50.845Z,38.21
2018-08-07T13:45:50.805Z,41.10
2018-08-07T14:00:51.358Z,40.96
2018-08-07T14:15:50.785Z,40.85
2018-08-07T14:30:51.249Z,42.05
2018-08-07T14:45:54.962Z,42.29
2018-08-07T15:00:51.229Z,40.87
2018-08-07T15:15:54.677Z,41.18
2018-08-07T15:30:51.091Z,42.62
2018-08-07T15:45:50.534Z,43.57
2018-08-07T16:00:50.551Z,43.14
2018-08-07T16:15:50.582Z,46.75
2018-08-07T16:30:51.498Z,46.09
2018-08-07T16:45:50.979Z,50.26
2018-08-07T17:00:50.451Z,46.61
2018-08-07T17:15:50.938Z,48.37
2018-08-07T17:30:50.378Z,52.35
2018-08-07T17:45:50.254Z,49.07
2018-08-07T18:00:50.359Z,51.46
2018-08-07T18:15:50.179Z,52.92
2018-08-07T18:30:50.640Z,51.92
2018-08-07T18:45:50.989Z,53.87
2018-08-07T19:00:50.738Z,53.12
2018-08-07T19:15:50.466Z,52.88
2018-08-07T19:30:51.751Z,54.78
2018-08-07T19:45:51.509Z,55.54
2018-08-07T20:00:51.591Z,54.33
2018-08-07T20:15:50.465Z,54.71
2018-08-07T20:30:51.448Z,55.01
2018-08-07T20:45:50.901Z,55.11
2018-08-07T21:00:52.351Z,56.05
2018-08-07T21:15:50.427Z,56.59
2018-08-07T21:30:50.841Z,55.39
2018-08-07T21:45:50.835Z,54.26
2018-08-07T22:00:51.609Z,54.37
2018-08-07T22:15:50.747Z,54.26
2018-08-07T22:30:50.253Z,54.39
2018-08-07T22:45:49.208Z,55.04
2018-08-07T23:00:49.151Z,54.46
2018-08-07T23:15:49.564Z,55.27
2018-08-07T23:30:50.611Z,55.35
2018-08-07T23:45:50.508Z,55.91
